sensor_id;sensor_type;location;lat;lon;timestamp;pressure;altitude;pressure_sealevel;temperature;humidity
21900;BME280;11114;50.658;12.704;2023-12-22T14:57:38;94013.13;;;-0.23;97.82
21900;BME280;11114;50.658;12.704;2023-12-22T15:00:26;94000.84;;;-0.13;99.72
21900;BME280;11114;50.658;12.704;2023-12-22T15:03:12;93999.16;;;0.02;99.27
21900;BME280;11114;50.658;12.704;2023-12-22T15:06:02;94005.53;;;0.22;99.37
21900;BME280;11114;50.658;12.704;2023-12-22T15:08:49;94009.78;;;0.37;96.76
21900;BME280;11114;50.658;12.704;2023-12-22T15:11:43;94013.44;;;0.51;95.62
21900;BME280;11114;50.658;12.704;2023-12-22T15:14:30;94030.28;;;0.61;97.11
21900;BME280;11114;50.658;12.704;2023-12-22T15:17:16;94014.59;;;0.70;97.60
21900;BME280;11114;50.658;12.704;2023-12-22T15:20:04;94011.13;;;0.78;97.67
21900;BME280;11114;50.658;12.704;2023-12-22T15:22:56;94002.88;;;0.82;95.16
21900;BME280;11114;50.658;12.704;2023-12-22T15:25:42;94006.09;;;0.84;94.72
21900;BME280;11114;50.658;12.704;2023-12-22T15:28:29;94013.13;;;0.90;95.64
21900;BME280;11114;50.658;12.704;2023-12-22T15:31:16;94006.03;;;0.92;95.06
21900;BME280;11114;50.658;12.704;2023-12-22T15:34:02;94005.50;;;0.97;93.83
21900;BME280;11114;50.658;12.704;2023-12-22T15:36:51;94004.34;;;0.99;93.02
21900;BME280;11114;50.658;12.704;2023-12-22T15:39:38;94003.38;;;1.00;92.36
21900;BME280;11114;50.658;12.704;2023-12-22T15:42:25;94015.13;;;1.03;92.70
21900;BME280;11114;50.658;12.704;2023-12-22T15:45:13;94017.56;;;1.04;91.56
21900;BME280;11114;50.658;12.704;2023-12-22T15:48:00;94000.13;;;1.06;92.07
21900;BME280;11114;50.658;12.704;2023-12-22T15:50:48;94002.53;;;1.08;91.77
21900;BME280;11114;50.658;12.704;2023-12-22T15:53:38;94003.31;;;1.08;89.82
21900;BME280;11114;50.658;12.704;2023-12-22T15:56:27;94003.31;;;1.08;91.82
21900;BME280;11114;50.658;12.704;2023-12-22T15:59:14;94016.75;;;1.04;89.31
21900;BME280;11114;50.658;12.704;2023-12-22T16:02:02;93997.25;;;1.01;88.86
21900;BME280;11114;50.658;12.704;2023-12-22T16:48:20;93969.88;;;1.29;86.78
21900;BME280;11114;50.658;12.704;2023-12-22T16:51:07;93974.09;;;1.08;88.73
21900;BME280;11114;50.658;12.704;2023-12-22T16:53:54;93966.03;;;0.88;89.86
21900;BME280;11114;50.658;12.704;2023-12-22T16:56:46;93971.31;;;0.72;91.55
21900;BME280;11114;50.658;12.704;2023-12-22T16:59:33;93970.47;;;0.57;92.88
21900;BME280;11114;50.658;12.704;2023-12-22T17:02:20;93965.03;;;0.53;93.71
21900;BME280;11114;50.658;12.704;2023-12-22T17:05:18;93966.66;;;0.46;94.49
21900;BME280;11114;50.658;12.704;2023-12-22T17:08:06;93970.91;;;0.39;95.42
21900;BME280;11114;50.658;12.704;2023-12-22T17:10:53;93985.28;;;0.33;96.07
21900;BME280;11114;50.658;12.704;2023-12-22T17:13:40;93974.69;;;0.28;96.18
21900;BME280;11114;50.658;12.704;2023-12-22T17:16:27;93973.91;;;0.20;97.34
21900;BME280;11114;50.658;12.704;2023-12-22T17:19:13;93973.31;;;0.10;98.46
21900;BME280;11114;50.658;12.704;2023-12-22T17:22:03;93968.22;;;0.02;99.36
21900;BME280;11114;50.658;12.704;2023-12-22T17:24:50;93970.69;;;-0.05;99.89
21900;BME280;11114;50.658;12.704;2023-12-22T17:27:36;93975.84;;;-0.05;100.00
21900;BME280;11114;50.658;12.704;2023-12-22T17:30:23;93975.03;;;-0.05;100.00
21900;BME280;11114;50.658;12.704;2023-12-22T17:33:11;93979.38;;;-0.06;100.00
21900;BME280;11114;50.658;12.704;2023-12-22T17:35:58;93978.25;;;-0.03;100.00
21900;BME280;11114;50.658;12.704;2023-12-22T17:38:44;93979.38;;;-0.06;100.00
21900;BME280;11114;50.658;12.704;2023-12-22T17:41:32;93969.44;;;-0.17;100.00
21900;BME280;11114;50.658;12.704;2023-12-22T17:44:47;93978.47;;;-0.21;100.00
21900;BME280;11114;50.658;12.704;2023-12-22T17:47:34;93966.72;;;-0.23;100.00
21900;BME280;11114;50.658;12.704;2023-12-22T17:50:21;93963.53;;;-0.33;100.00
21900;BME280;11114;50.658;12.704;2023-12-22T17:53:09;93958.56;;;-0.34;100.00
21900;BME280;11114;50.658;12.704;2023-12-22T17:55:56;93950.34;;;-0.38;100.00
21900;BME280;11114;50.658;12.704;2023-12-22T17:58:47;93948.41;;;-0.36;100.00
21900;BME280;11114;50.658;12.704;2023-12-22T18:01:33;93941.81;;;-0.38;100.00
21900;BME280;11114;50.658;12.704;2023-12-22T18:04:22;93941.81;;;-0.38;100.00
21900;BME280;11114;50.658;12.704;2023-12-22T18:07:10;93933.91;;;-0.37;100.00
21900;BME280;11114;50.658;12.704;2023-12-22T18:09:56;93946.31;;;-0.32;100.00
21900;BME280;11114;50.658;12.704;2023-12-22T18:12:42;93942.88;;;-0.25;100.00
21900;BME280;11114;50.658;12.704;2023-12-22T18:15:31;93934.63;;;-0.21;100.00
21900;BME280;11114;50.658;12.704;2023-12-22T18:18:17;93933.16;;;-0.15;100.00
21900;BME280;11114;50.658;12.704;2023-12-22T18:21:04;93939.38;;;-0.02;100.00
21900;BME280;11114;50.658;12.704;2023-12-22T18:23:51;93944.34;;;0.08;100.00
21900;BME280;11114;50.658;12.704;2023-12-22T18:26:37;93976.22;;;0.15;100.00
21900;BME280;11114;50.658;12.704;2023-12-22T18:29:23;93954.38;;;0.25;100.00
21900;BME280;11114;50.658;12.704;2023-12-22T18:32:10;93957.88;;;0.32;100.00
21900;BME280;11114;50.658;12.704;2023-12-22T18:35:00;93958.00;;;0.39;100.00
21900;BME280;11114;50.658;12.704;2023-12-22T18:37:47;93954.91;;;0.43;100.00
21900;BME280;11114;50.658;12.704;2023-12-22T18:40:34;93980.84;;;0.50;100.00
21900;BME280;11114;50.658;12.704;2023-12-22T18:43:20;93972.59;;;0.54;100.00
21900;BME280;11114;50.658;12.704;2023-12-22T18:46:06;93966.09;;;0.58;100.00
21900;BME280;11114;50.658;12.704;2023-12-22T18:48:53;93966.56;;;0.61;100.00
21900;BME280;11114;50.658;12.704;2023-12-22T18:51:39;93969.75;;;0.63;100.00
21900;BME280;11114;50.658;12.704;2023-12-22T18:54:30;93964.91;;;0.68;100.00
21900;BME280;11114;50.658;12.704;2023-12-22T18:57:16;93966.16;;;0.72;100.00
21900;BME280;11114;50.658;12.704;2023-12-22T19:00:04;93970.00;;;0.76;100.00
21900;BME280;11114;50.658;12.704;2023-12-22T19:02:51;93976.13;;;0.75;100.00
21900;BME280;11114;50.658;12.704;2023-12-22T19:05:47;93973.56;;;0.75;100.00
21900;BME280;11114;50.658;12.704;2023-12-22T19:08:34;93963.69;;;0.79;100.00
21900;BME280;11114;50.658;12.704;2023-12-22T19:11:20;93982.22;;;0.82;100.00
21900;BME280;11114;50.658;12.704;2023-12-22T19:14:07;93980.09;;;0.86;100.00
21900;BME280;11114;50.658;12.704;2023-12-22T19:16:54;93975.91;;;0.85;100.00
21900;BME280;11114;50.658;12.704;2023-12-22T19:19:41;93975.38;;;0.89;100.00
21900;BME280;11114;50.658;12.704;2023-12-22T19:22:28;93981.81;;;0.93;100.00
21900;BME280;11114;50.658;12.704;2023-12-22T19:25:14;93977.28;;;0.95;100.00
21900;BME280;11114;50.658;12.704;2023-12-22T19:28:00;93993.56;;;0.96;100.00
21900;BME280;11114;50.658;12.704;2023-12-22T19:30:48;93994.38;;;0.96;100.00
21900;BME280;11114;50.658;12.704;2023-12-22T19:33:38;94009.88;;;0.96;100.00
21900;BME280;11114;50.658;12.704;2023-12-22T19:36:26;94003.09;;;0.95;100.00
21900;BME280;11114;50.658;12.704;2023-12-22T19:39:12;94006.66;;;0.94;100.00
21900;BME280;11114;50.658;12.704;2023-12-22T19:41:59;94004.72;;;0.96;100.00
21900;BME280;11114;50.658;12.704;2023-12-22T19:44:45;94039.91;;;0.97;100.00
21900;BME280;11114;50.658;12.704;2023-12-22T19:47:32;94006.59;;;1.02;100.00
21900;BME280;11114;50.658;12.704;2023-12-22T19:50:19;94040.19;;;1.02;99.64
21900;BME280;11114;50.658;12.704;2023-12-22T19:53:05;94055.56;;;0.96;99.30
21900;BME280;11114;50.658;12.704;2023-12-22T19:55:52;94061.22;;;0.91;99.98
21900;BME280;11114;50.658;12.704;2023-12-22T19:58:43;94034.78;;;0.89;100.00
21900;BME280;11114;50.658;12.704;2023-12-22T20:01:29;94050.97;;;0.83;99.45
21900;BME280;11114;50.658;12.704;2023-12-22T20:04:16;94069.22;;;0.82;99.83
21900;BME280;11114;50.658;12.704;2023-12-22T20:07:03;94060.50;;;0.83;100.00
21900;BME280;11114;50.658;12.704;2023-12-22T20:09:50;94033.06;;;0.82;99.47
21900;BME280;11114;50.658;12.704;2023-12-22T20:12:36;94039.53;;;0.78;98.90
21900;BME280;11114;50.658;12.704;2023-12-22T20:15:28;94033.91;;;0.74;97.84
21900;BME280;11114;50.658;12.704;2023-12-22T20:18:15;94089.75;;;0.75;98.90
21900;BME280;11114;50.658;12.704;2023-12-22T20:21:02;94102.47;;;0.77;98.62
21900;BME280;11114;50.658;12.704;2023-12-22T20:23:50;94064.63;;;0.69;98.10
21900;BME280;11114;50.658;12.704;2023-12-22T20:26:40;94111.09;;;0.69;98.06
21900;BME280;11114;50.658;12.704;2023-12-22T20:29:26;94093.84;;;0.62;97.23
21900;BME280;11114;50.658;12.704;2023-12-22T20:32:13;94084.72;;;0.52;96.73
21900;BME280;11114;50.658;12.704;2023-12-22T20:34:59;94089.25;;;0.50;97.96
21900;BME280;11114;50.658;12.704;2023-12-22T20:37:50;94072.84;;;0.43;96.75
21900;BME280;11114;50.658;12.704;2023-12-22T20:40:36;94098.22;;;0.23;96.28
21900;BME280;11114;50.658;12.704;2023-12-22T20:43:23;94108.06;;;0.20;96.86
21900;BME280;11114;50.658;12.704;2023-12-22T20:46:11;94117.91;;;0.16;96.93
21900;BME280;11114;50.658;12.704;2023-12-22T20:48:57;94104.72;;;0.11;96.51
21900;BME280;11114;50.658;12.704;2023-12-22T20:51:45;94098.75;;;0.11;97.05
21900;BME280;11114;50.658;12.704;2023-12-22T20:54:36;94090.53;;;0.07;96.38
21900;BME280;11114;50.658;12.704;2023-12-22T20:57:23;94110.19;;;0.08;96.27
21900;BME280;11114;50.658;12.704;2023-12-22T21:00:10;94117.47;;;0.05;96.84
21900;BME280;11114;50.658;12.704;2023-12-22T21:02:57;94140.03;;;0.03;96.67
21900;BME280;11114;50.658;12.704;2023-12-22T21:05:44;94140.88;;;-0.21;95.14
21900;BME280;11114;50.658;12.704;2023-12-22T21:08:34;94137.66;;;-0.38;95.72
21900;BME280;11114;50.658;12.704;2023-12-22T21:11:21;94151.22;;;-0.52;96.07
21900;BME280;11114;50.658;12.704;2023-12-22T21:14:08;94152.00;;;-0.68;96.26
21900;BME280;11114;50.658;12.704;2023-12-22T21:16:55;94160.56;;;-0.75;96.39
21900;BME280;11114;50.658;12.704;2023-12-22T21:19:41;94152.47;;;-0.88;97.29
21900;BME280;11114;50.658;12.704;2023-12-22T21:22:28;94150.06;;;-0.98;97.65
21900;BME280;11114;50.658;12.704;2023-12-22T21:25:15;94152.63;;;-1.06;98.52
21900;BME280;11114;50.658;12.704;2023-12-22T21:28:02;94152.13;;;-1.09;98.92
21900;BME280;11114;50.658;12.704;2023-12-22T21:30:49;94148.09;;;-1.04;99.15
21900;BME280;11114;50.658;12.704;2023-12-22T21:33:35;94143.41;;;-1.16;98.35
21900;BME280;11114;50.658;12.704;2023-12-22T21:36:23;94144.72;;;-1.20;99.69
21900;BME280;11114;50.658;12.704;2023-12-22T21:39:10;94148.25;;;-1.13;100.00
21900;BME280;11114;50.658;12.704;2023-12-22T21:41:56;94145.38;;;-1.10;99.44
21900;BME280;11114;50.658;12.704;2023-12-22T21:44:43;94151.66;;;-1.05;99.87
21900;BME280;11114;50.658;12.704;2023-12-22T21:47:29;94163.91;;;-0.91;100.00
21900;BME280;11114;50.658;12.704;2023-12-22T21:50:15;94168.75;;;-0.80;99.73
21900;BME280;11114;50.658;12.704;2023-12-22T21:53:02;94181.31;;;-0.77;99.21
21900;BME280;11114;50.658;12.704;2023-12-22T21:55:48;94201.59;;;-0.74;99.07
21900;BME280;11114;50.658;12.704;2023-12-22T21:58:35;94201.59;;;-0.82;98.08
21900;BME280;11114;50.658;12.704;2023-12-22T22:01:21;94224.09;;;-0.92;98.56
21900;BME280;11114;50.658;12.704;2023-12-22T22:04:08;94239.53;;;-1.00;98.46
21900;BME280;11114;50.658;12.704;2023-12-22T22:06:55;94230.66;;;-1.05;98.90
21900;BME280;11114;50.658;12.704;2023-12-22T22:09:43;94231.44;;;-1.12;99.31
21900;BME280;11114;50.658;12.704;2023-12-22T22:12:30;94216.28;;;-1.23;99.43
21900;BME280;11114;50.658;12.704;2023-12-22T22:15:16;94226.09;;;-1.27;100.00
21900;BME280;11114;50.658;12.704;2023-12-22T22:18:03;94215.78;;;-1.27;100.00
21900;BME280;11114;50.658;12.704;2023-12-22T22:20:50;94213.22;;;-1.27;100.00
21900;BME280;11114;50.658;12.704;2023-12-22T22:23:36;94215.63;;;-1.25;100.00
21900;BME280;11114;50.658;12.704;2023-12-22T22:26:22;94224.63;;;-1.21;100.00
21900;BME280;11114;50.658;12.704;2023-12-22T22:29:09;94229.28;;;-1.25;100.00
21900;BME280;11114;50.658;12.704;2023-12-22T22:31:58;94238.13;;;-1.27;100.00
21900;BME280;11114;50.658;12.704;2023-12-22T22:34:44;94254.69;;;-1.30;100.00
21900;BME280;11114;50.658;12.704;2023-12-22T22:37:31;94249.84;;;-1.33;100.00
21900;BME280;11114;50.658;12.704;2023-12-22T22:40:18;94249.50;;;-1.38;100.00
21900;BME280;11114;50.658;12.704;2023-12-22T22:43:04;94258.94;;;-1.46;100.00
21900;BME280;11114;50.658;12.704;2023-12-22T22:45:50;94251.22;;;-1.46;100.00
21900;BME280;11114;50.658;12.704;2023-12-22T22:48:38;94266.66;;;-1.46;100.00
21900;BME280;11114;50.658;12.704;2023-12-22T22:51:26;94269.59;;;-1.41;100.00
21900;BME280;11114;50.658;12.704;2023-12-22T22:54:13;94273.16;;;-1.34;100.00
21900;BME280;11114;50.658;12.704;2023-12-22T22:57:23;94269.19;;;-1.29;100.00
